Time;durP1;ratioP1;P1;durP2;ratioP2;P2;SDS_P1;SDS_P2;PMS_P1;PMS_P2;Temp;Humidity;BMP_temperature;BMP_pressure;BME280_temperature;BME280_humidity;BME280_pressure;Samples;Min_cycle;Max_cycle;Signal;HPM_P1;HPM_P2
2021/09/29 00:00:17;;;;;;;2.83;2.60;;;;;;;13.52;97.25;96379.28;5115548;27;20034;-69
2021/09/29 00:02:42;;;;;;;4.18;3.25;;;;;;;13.44;98.93;96378.22;5123898;27;20026;-69
2021/09/29 00:05:08;;;;;;;7.82;4.13;;;;;;;13.40;100.00;96375.97;5130046;27;20087;-69
2021/09/29 00:07:33;;;;;;;5.50;4.60;;;;;;;13.42;100.00;96385.44;5124243;27;20023;-69
2021/09/29 00:09:59;;;;;;;6.10;4.50;;;;;;;13.46;100.00;96380.69;5085487;28;20114;-69
2021/09/29 00:12:24;;;;;;;4.25;3.85;;;;;;;13.50;100.00;96384.75;5102433;28;20030;-69
2021/09/29 00:14:50;;;;;;;5.88;4.50;;;;;;;13.50;100.00;96383.91;5101564;28;20070;-69
2021/09/29 00:17:15;;;;;;;5.72;4.03;;;;;;;13.50;100.00;96389.19;5105298;28;20510;-69
2021/09/29 00:19:41;;;;;;;4.63;4.20;;;;;;;13.46;100.00;96386.84;5102929;28;20051;-69
2021/09/29 00:22:06;;;;;;;6.72;4.13;;;;;;;13.49;100.00;96384.88;5109110;28;20016;-69
2021/09/29 00:24:31;;;;;;;4.90;3.80;;;;;;;13.46;100.00;96380.69;5109512;28;20569;-69
2021/09/29 00:26:57;;;;;;;6.38;4.50;;;;;;;13.43;100.00;96378.34;5103758;28;20028;-69
2021/09/29 00:29:22;;;;;;;5.57;4.30;;;;;;;13.46;100.00;96383.34;5102954;28;20016;-69
2021/09/29 00:31:48;;;;;;;4.80;3.70;;;;;;;13.45;100.00;96374.59;5099441;28;20028;-69
2021/09/29 00:34:21;;;;;;;7.95;4.15;;;;;;;13.48;100.00;96368.16;5105800;28;20020;-69
2021/09/29 00:36:47;;;;;;;5.47;4.43;;;;;;;13.44;100.00;96383.50;5107306;28;20030;-68
2021/09/29 00:39:13;;;;;;;5.75;4.25;;;;;;;13.45;100.00;96392.25;5103019;28;20020;-69
2021/09/29 00:41:40;;;;;;;6.20;3.70;;;;;;;13.50;100.00;96383.91;5111013;27;20027;-69
2021/09/29 00:44:06;;;;;;;3.53;3.22;;;;;;;13.38;100.00;96388.50;5104282;28;20061;-69
2021/09/29 00:46:31;;;;;;;6.75;3.83;;;;;;;13.37;100.00;96384.19;5076863;28;20422;-69
2021/09/29 00:48:57;;;;;;;3.83;3.50;;;;;;;13.39;100.00;96383.06;5096381;28;20114;-69
2021/09/29 00:51:22;;;;;;;4.13;3.80;;;;;;;13.43;100.00;96386.28;5098767;28;20032;-68
2021/09/29 00:53:51;;;;;;;5.13;3.92;;;;;;;13.41;100.00;96377.63;5103451;28;20032;-68
2021/09/29 00:56:17;;;;;;;7.93;3.97;;;;;;;13.33;100.00;96376.53;5102150;27;20435;-68
2021/09/29 00:58:48;;;;;;;4.00;3.70;;;;;;;13.32;100.00;96360.78;5106656;28;20126;-69
2021/09/29 01:01:19;;;;;;;3.78;3.47;;;;;;;13.37;100.00;96368.31;5099570;27;20116;-68
2021/09/29 01:04:01;;;;;;;4.63;3.45;;;;;;;13.32;100.00;96363.44;5101363;28;20038;-68
2021/09/29 01:06:50;;;;;;;7.10;3.55;;;;;;;13.25;100.00;96362.34;5089051;27;20088;-69
2021/09/29 01:09:40;;;;;;;3.90;3.33;;;;;;;13.25;100.00;96359.72;5085589;28;20036;-69
2021/09/29 01:12:20;;;;;;;5.10;3.35;;;;;;;13.23;100.00;96372.25;5106556;28;20106;-68
2021/09/29 01:15:02;;;;;;;5.13;3.60;;;;;;;13.17;100.00;96363.91;5109729;27;20024;-69
2021/09/29 01:17:29;;;;;;;5.45;2.78;;;;;;;13.17;100.00;96363.06;5106544;27;20027;-68
2021/09/29 01:20:19;;;;;;;7.72;2.80;;;;;;;13.08;100.00;96367.38;5099515;28;20027;-68
2021/09/29 01:23:08;;;;;;;3.63;3.00;;;;;;;13.05;100.00;96357.09;5108726;27;20107;-69
2021/09/29 01:25:49;;;;;;;9.07;3.45;;;;;;;13.03;100.00;96361.69;5104666;27;20034;-68
2021/09/29 01:28:20;;;;;;;3.47;2.92;;;;;;;12.94;100.00;96360.72;5109620;27;20023;-68
2021/09/29 01:30:57;;;;;;;3.92;3.10;;;;;;;12.96;100.00;96364.06;5100331;28;20569;-69
2021/09/29 01:33:24;;;;;;;3.78;3.25;;;;;;;12.94;100.00;96357.25;5113241;27;20023;-68
2021/09/29 01:35:50;;;;;;;4.65;3.20;;;;;;;12.89;100.00;96362.94;5091458;28;20016;-68
2021/09/29 01:38:22;;;;;;;7.90;3.33;;;;;;;12.89;100.00;96368.25;5105304;28;20387;-68
2021/09/29 01:40:47;;;;;;;4.57;3.33;;;;;;;12.93;100.00;96359.06;5105053;28;20576;-70
2021/09/29 01:43:13;;;;;;;5.57;3.78;;;;;;;12.97;100.00;96362.25;5106624;28;20145;-67
2021/09/29 01:45:38;;;;;;;6.60;3.60;;;;;;;12.96;100.00;96364.06;5110938;27;20612;-68
2021/09/29 01:48:05;;;;;;;3.75;3.42;;;;;;;13.00;100.00;96360.16;5105817;27;20027;-68
2021/09/29 01:50:32;;;;;;;2.95;2.85;;;;;;;13.08;100.00;96358.63;5106981;28;20174;-67
2021/09/29 01:52:59;;;;;;;4.47;3.15;;;;;;;13.06;100.00;96352.66;5108184;27;20020;-70
2021/09/29 01:55:27;;;;;;;3.45;3.25;;;;;;;13.03;100.00;96348.47;5106339;27;20030;-66
2021/09/29 01:57:56;;;;;;;6.68;3.28;;;;;;;13.04;100.00;96351.00;5101436;28;20055;-68
2021/09/29 02:00:24;;;;;;;3.00;2.72;;;;;;;13.03;100.00;96348.47;5102093;28;20085;-67
2021/09/29 02:02:59;;;;;;;2.88;2.60;;;;;;;12.97;100.00;96344.56;5094891;28;20074;-67
2021/09/29 02:05:35;;;;;;;3.80;2.80;;;;;;;12.93;100.00;96339.69;5117756;27;20054;-67
2021/09/29 02:08:04;;;;;;;6.32;3.15;;;;;;;12.90;100.00;96351.41;5102242;28;20524;-68
2021/09/29 02:10:29;;;;;;;3.53;3.10;;;;;;;12.86;100.00;96353.50;5111130;27;20031;-68
2021/09/29 02:12:55;;;;;;;4.20;2.65;;;;;;;12.86;100.00;96361.41;5088563;28;20024;-68
2021/09/29 02:15:21;;;;;;;5.65;2.88;;;;;;;12.87;100.00;96363.09;5100653;28;20056;-68
2021/09/29 02:17:48;;;;;;;4.30;3.10;;;;;;;12.87;100.00;96368.38;5092172;27;20039;-68
2021/09/29 02:20:13;;;;;;;4.88;2.88;;;;;;;12.89;100.00;96370.88;5098187;28;20016;-68
2021/09/29 02:22:39;;;;;;;2.70;2.60;;;;;;;12.86;100.00;96371.97;5106861;28;20032;-68
2021/09/29 02:25:07;;;;;;;3.25;2.92;;;;;;;12.93;100.00;96368.78;5088651;28;20086;-68
2021/09/29 02:27:33;;;;;;;5.35;2.65;;;;;;;12.92;100.00;96369.75;5084795;28;20102;-69
2021/09/29 02:29:59;;;;;;;3.70;3.13;;;;;;;12.90;100.00;96370.72;5100001;28;20106;-68
2021/09/29 02:32:26;;;;;;;5.82;3.35;;;;;;;12.85;100.00;96372.97;5086656;28;20020;-68
2021/09/29 02:34:51;;;;;;;3.10;2.90;;;;;;;12.83;100.00;96364.34;5081995;28;20393;-67
2021/09/29 02:37:17;;;;;;;5.28;2.88;;;;;;;12.89;100.00;96362.94;5077686;28;20016;-69
2021/09/29 02:39:42;;;;;;;7.63;3.30;;;;;;;12.90;100.00;96354.06;5084937;28;20035;-67
2021/09/29 02:42:08;;;;;;;4.05;3.17;;;;;;;12.85;100.00;96354.47;5087890;28;20016;-69
2021/09/29 02:44:34;;;;;;;4.55;2.50;;;;;;;12.81;100.00;96365.44;5083762;28;20027;-68
2021/09/29 02:47:00;;;;;;;3.22;2.60;;;;;;;12.83;100.00;96366.16;5088218;28;20020;-71
2021/09/29 02:49:26;;;;;;;3.03;2.70;;;;;;;12.78;100.00;96369.22;5089202;28;20039;-68
2021/09/29 02:51:52;;;;;;;4.75;3.17;;;;;;;12.79;100.00;96367.41;5080920;28;20031;-70
2021/09/29 02:54:18;;;;;;;5.95;2.78;;;;;;;12.80;100.00;96361.13;5083452;28;20020;-70
2021/09/29 02:56:43;;;;;;;4.22;2.83;;;;;;;12.78;100.00;96360.44;5082232;28;20103;-70
2021/09/29 02:59:09;;;;;;;5.78;2.78;;;;;;;12.74;100.00;96349.34;5087541;28;20082;-70
2021/09/29 03:01:37;;;;;;;6.88;3.10;;;;;;;12.73;100.00;96342.38;5082988;28;20082;-70
2021/09/29 03:04:02;;;;;;;4.53;3.30;;;;;;;12.73;100.00;96340.56;5085797;28;20058;-70
2021/09/29 03:06:28;;;;;;;2.85;2.70;;;;;;;12.69;100.00;96333.91;5095722;28;20024;-69
2021/09/29 03:08:53;;;;;;;2.85;2.65;;;;;;;12.72;100.00;96330.97;5087103;28;20028;-69
2021/09/29 03:11:18;;;;;;;2.58;2.35;;;;;;;12.63;100.00;96325.69;5081148;28;20558;-69
2021/09/29 03:13:45;;;;;;;3.20;2.78;;;;;;;12.58;100.00;96329.59;5080828;28;20088;-68
2021/09/29 03:16:10;;;;;;;6.35;2.80;;;;;;;12.54;100.00;96327.34;5082075;28;20059;-69
2021/09/29 03:18:36;;;;;;;4.07;2.58;;;;;;;12.50;100.00;96331.25;5081918;28;20052;-69
2021/09/29 03:21:01;;;;;;;4.28;2.88;;;;;;;12.48;100.00;96333.19;5080732;28;20438;-69
2021/09/29 03:23:27;;;;;;;6.40;3.15;;;;;;;12.39;100.00;96338.34;5084550;28;20064;-69
2021/09/29 03:25:52;;;;;;;3.88;2.80;;;;;;;12.52;100.00;96340.72;5106709;28;20462;-69
2021/09/29 03:28:17;;;;;;;6.10;3.15;;;;;;;12.51;100.00;96344.31;5097941;27;20074;-70
2021/09/29 03:30:43;;;;;;;4.43;3.50;;;;;;;12.81;100.00;96342.50;5110034;27;20020;-70
2021/09/29 03:33:08;;;;;;;6.25;3.28;;;;;;;12.67;100.00;96351.69;5104895;28;20477;-70
2021/09/29 03:35:34;;;;;;;3.00;2.80;;;;;;;12.63;100.00;96346.81;5099292;28;20115;-70
2021/09/29 03:38:00;;;;;;;12.63;3.00;;;;;;;12.60;100.00;96353.22;5087524;28;20376;-70
2021/09/29 03:40:26;;;;;;;4.70;2.75;;;;;;;12.56;100.00;96346.53;5099652;28;20045;-70
2021/09/29 03:42:51;;;;;;;3.28;3.00;;;;;;;12.50;100.00;96350.59;5102986;28;20496;-70
2021/09/29 03:45:16;;;;;;;3.05;2.85;;;;;;;12.51;100.00;96354.88;5106618;28;20486;-70
2021/09/29 03:47:43;;;;;;;6.18;2.78;;;;;;;12.49;100.00;96353.34;5091935;28;20023;-70
2021/09/29 03:50:09;;;;;;;10.88;3.47;;;;;;;12.49;100.00;96356.00;5105350;28;20041;-69
2021/09/29 03:52:35;;;;;;;3.10;2.90;;;;;;;12.50;100.00;96355.88;5100076;28;20020;-70
2021/09/29 03:55:00;;;;;;;3.47;2.70;;;;;;;12.42;100.00;96358.34;5112064;28;20031;-70
2021/09/29 03:57:26;;;;;;;3.15;2.70;;;;;;;12.44;100.00;96359.03;5108867;28;20023;-71
2021/09/29 03:59:51;;;;;;;5.57;2.75;;;;;;;12.45;100.00;96360.69;5096685;28;20491;-70
2021/09/29 04:02:16;;;;;;;2.28;2.17;;;;;;;12.37;100.00;96363.19;5099029;28;20028;-70
2021/09/29 04:04:42;;;;;;;4.57;2.40;;;;;;;12.35;100.00;96370.44;5098000;28;20104;-70
2021/09/29 04:07:07;;;;;;;4.32;2.80;;;;;;;12.34;100.00;96364.28;5090239;28;20050;-70
2021/09/29 04:09:32;;;;;;;2.90;2.70;;;;;;;12.36;100.00;96366.81;5119923;28;20026;-70
2021/09/29 04:11:58;;;;;;;3.13;2.75;;;;;;;12.30;100.00;96369.03;5124933;28;20023;-70
2021/09/29 04:14:24;;;;;;;3.88;2.92;;;;;;;12.26;100.00;96364.97;5099125;28;20069;-70
2021/09/29 04:16:49;;;;;;;2.95;2.75;;;;;;;12.26;100.00;96375.53;5109210;28;20043;-70
2021/09/29 04:19:15;;;;;;;5.25;3.00;;;;;;;12.27;100.00;96366.66;5107634;28;20063;-70
2021/09/29 04:21:41;;;;;;;6.55;3.13;;;;;;;12.26;100.00;96377.34;5095282;28;20052;-70
2021/09/29 04:24:08;;;;;;;3.83;2.70;;;;;;;12.27;100.00;96379.88;5108007;28;20086;-70
2021/09/29 04:26:34;;;;;;;4.65;2.92;;;;;;;12.24;100.00;96380.13;5088128;28;20023;-70
2021/09/29 04:28:59;;;;;;;2.78;2.58;;;;;;;12.17;100.00;96382.50;5097323;28;20030;-70
2021/09/29 04:31:25;;;;;;;6.35;2.63;;;;;;;12.11;100.00;96383.00;5096967;28;20132;-69
2021/09/29 04:33:50;;;;;;;2.88;2.67;;;;;;;12.02;100.00;96387.28;5094283;28;20110;-69
2021/09/29 04:36:15;;;;;;;3.28;2.97;;;;;;;11.99;100.00;96379.59;5107184;28;20023;-69
2021/09/29 04:38:41;;;;;;;3.28;2.70;;;;;;;11.96;100.00;96381.69;5109022;28;20472;-69
2021/09/29 04:41:06;;;;;;;2.50;2.40;;;;;;;11.89;100.00;96387.47;5113098;28;20035;-70
2021/09/29 04:43:31;;;;;;;3.10;2.88;;;;;;;11.87;100.00;96392.06;5108845;28;20095;-69
2021/09/29 04:45:57;;;;;;;4.13;2.88;;;;;;;11.81;100.00;96394.38;5099187;28;20055;-70
2021/09/29 04:48:22;;;;;;;3.17;2.90;;;;;;;11.74;100.00;96394.09;5103543;28;20024;-69
2021/09/29 04:50:48;;;;;;;3.05;2.50;;;;;;;11.68;100.00;96381.41;5104663;27;20027;-69
2021/09/29 04:53:13;;;;;;;3.20;3.00;;;;;;;11.65;100.00;96393.09;5111568;28;20027;-68
2021/09/29 04:55:38;;;;;;;3.00;2.75;;;;;;;11.60;100.00;96392.63;5112079;27;20058;-68
2021/09/29 04:58:04;;;;;;;3.33;2.70;;;;;;;11.54;100.00;96382.59;5112144;27;20056;-69
2021/09/29 05:00:31;;;;;;;6.97;3.05;;;;;;;11.46;100.00;96381.47;5112476;28;20019;-68
2021/09/29 05:02:57;;;;;;;6.55;3.00;;;;;;;11.43;100.00;96389.66;5112129;28;20081;-68
2021/09/29 05:05:23;;;;;;;4.32;3.22;;;;;;;11.37;100.00;96387.50;5110880;27;20027;-71
2021/09/29 05:07:52;;;;;;;2.40;2.30;;;;;;;11.32;100.00;96389.69;5108629;28;20027;-70
2021/09/29 05:10:25;;;;;;;3.00;2.50;;;;;;;11.28;100.00;96388.28;5081839;28;20483;-72
2021/09/29 05:12:52;;;;;;;7.03;2.80;;;;;;;11.21;100.00;96397.69;5109880;28;20069;-69
2021/09/29 05:15:18;;;;;;;2.35;2.25;;;;;;;11.13;100.00;96393.88;5099928;27;20095;-69
2021/09/29 05:17:43;;;;;;;3.60;2.50;;;;;;;11.08;100.00;96396.06;5109825;28;20098;-68
2021/09/29 05:20:09;;;;;;;3.15;2.50;;;;;;;11.07;100.00;96401.47;5107948;28;20094;-69
2021/09/29 05:22:35;;;;;;;3.25;2.63;;;;;;;11.01;100.00;96408.09;5110857;28;20394;-69
2021/09/29 05:25:00;;;;;;;3.17;2.92;;;;;;;11.02;100.00;96412.41;5109241;28;20043;-69
2021/09/29 05:27:25;;;;;;;4.15;2.65;;;;;;;11.03;100.00;96414.06;5107286;28;20016;-69
2021/09/29 05:29:51;;;;;;;3.13;2.70;;;;;;;10.97;100.00;96418.03;5109538;28;20031;-69
2021/09/29 05:32:16;;;;;;;4.40;2.88;;;;;;;10.92;100.00;96411.47;5107835;27;20475;-69
2021/09/29 05:34:42;;;;;;;2.72;2.55;;;;;;;10.89;100.00;96421.28;5110762;27;20406;-69
2021/09/29 05:37:07;;;;;;;4.72;2.95;;;;;;;10.88;100.00;96422.25;5108959;27;20149;-69
2021/09/29 05:39:33;;;;;;;4.30;2.95;;;;;;;10.86;100.00;96416.28;5110987;28;20406;-69
2021/09/29 05:41:59;;;;;;;6.07;2.78;;;;;;;10.85;100.00;96430.41;5101040;28;20039;-69
2021/09/29 05:44:25;;;;;;;5.28;3.05;;;;;;;10.85;100.00;96427.78;5117119;27;20023;-69
2021/09/29 05:46:50;;;;;;;2.92;2.70;;;;;;;10.86;100.00;96432.09;5106403;28;20033;-68
2021/09/29 05:49:15;;;;;;;4.78;2.80;;;;;;;10.81;100.00;96436.91;5099374;27;20509;-68
2021/09/29 05:51:44;;;;;;;6.55;3.00;;;;;;;10.77;100.00;96432.00;5099635;28;20424;-68
2021/09/29 05:54:10;;;;;;;2.97;2.78;;;;;;;10.70;100.00;96443.03;5105457;27;20034;-68
2021/09/29 05:56:35;;;;;;;3.13;2.40;;;;;;;10.63;100.00;96436.63;5116629;27;20016;-68
2021/09/29 05:59:01;;;;;;;2.97;2.60;;;;;;;10.62;100.00;96434.09;5122433;27;20390;-69
2021/09/29 06:01:26;;;;;;;5.05;2.60;;;;;;;10.57;100.00;96443.19;5117745;27;20497;-70
2021/09/29 06:03:51;;;;;;;3.67;2.97;;;;;;;10.52;100.00;96436.63;5123516;27;20064;-69
2021/09/29 06:06:17;;;;;;;2.70;2.50;;;;;;;10.53;100.00;96440.94;5124371;27;20109;-72
2021/09/29 06:08:42;;;;;;;3.75;3.28;;;;;;;10.52;100.00;96445.38;5126370;27;20072;-69
2021/09/29 06:11:08;;;;;;;7.72;4.60;;;;;;;10.49;100.00;96450.84;5128640;27;20027;-70
2021/09/29 06:13:33;;;;;;;4.28;3.90;;;;;;;10.50;100.00;96446.44;5105179;27;20024;-70
2021/09/29 06:16:06;;;;;;;6.03;2.92;;;;;;;10.47;100.00;96458.03;5120430;27;20803;-71
2021/09/29 06:18:34;;;;;;;3.95;3.33;;;;;;;10.45;100.00;96455.56;5086019;28;20376;-69
2021/09/29 06:20:59;;;;;;;3.70;3.00;;;;;;;10.44;100.00;96459.16;5102866;28;20406;-73
2021/09/29 06:23:24;;;;;;;4.15;3.00;;;;;;;10.46;100.00;96473.03;5102613;28;20043;-70
2021/09/29 06:25:50;;;;;;;4.00;2.83;;;;;;;10.48;100.00;96469.44;5107932;28;20051;-74
2021/09/29 06:28:15;;;;;;;3.28;2.80;;;;;;;10.50;100.00;96468.34;5113745;27;20019;-72
2021/09/29 06:30:41;;;;;;;2.90;2.70;;;;;;;10.53;100.00;96469.88;5116948;27;20024;-72
2021/09/29 06:33:07;;;;;;;6.15;2.63;;;;;;;10.58;100.00;96467.72;5117031;27;20016;-71
2021/09/29 06:35:32;;;;;;;2.95;2.78;;;;;;;10.62;100.00;96474.44;5105736;27;20024;-73
2021/09/29 06:38:03;;;;;;;4.03;2.95;;;;;;;10.62;100.00;96484.97;5110596;28;20024;-70
2021/09/29 06:40:29;;;;;;;2.83;2.60;;;;;;;10.60;100.00;96481.59;5113120;27;20020;-70
2021/09/29 06:42:55;;;;;;;8.63;3.20;;;;;;;10.57;100.00;96485.31;5116124;27;20069;-71
2021/09/29 06:45:20;;;;;;;6.47;3.58;;;;;;;10.62;100.00;96487.59;5102885;27;20463;-71
2021/09/29 06:47:48;;;;;;;3.90;3.17;;;;;;;10.70;100.00;96490.44;5101223;28;20484;-72
2021/09/29 06:50:16;;;;;;;4.15;3.80;;;;;;;10.78;100.00;96495.09;5105489;27;20023;-71
2021/09/29 06:52:42;;;;;;;7.53;3.63;;;;;;;10.78;100.00;96489.84;5090113;27;20482;-72
2021/09/29 06:55:08;;;;;;;5.45;3.55;;;;;;;10.88;100.00;96490.75;5107317;28;20023;-72
2021/09/29 06:57:35;;;;;;;4.93;3.35;;;;;;;10.94;100.00;96493.84;5109927;27;20037;-72
2021/09/29 07:00:02;;;;;;;5.43;3.63;;;;;;;10.97;100.00;96491.81;5118010;27;20483;-72
2021/09/29 07:02:27;;;;;;;4.22;3.80;;;;;;;11.02;100.00;96491.44;5114605;27;20403;-73
2021/09/29 07:04:53;;;;;;;5.03;3.60;;;;;;;11.14;100.00;96492.25;5117111;27;20026;-73
2021/09/29 07:07:18;;;;;;;4.18;3.78;;;;;;;11.23;100.00;96493.28;5121680;27;20047;-70
2021/09/29 07:09:43;;;;;;;6.45;3.92;;;;;;;11.26;100.00;96487.75;5117595;27;20036;-71
2021/09/29 07:12:09;;;;;;;4.13;3.50;;;;;;;11.29;100.00;96498.03;5107115;27;20143;-70
2021/09/29 07:14:35;;;;;;;5.30;3.53;;;;;;;11.29;100.00;96492.78;5115949;27;20023;-71
2021/09/29 07:17:01;;;;;;;4.55;3.33;;;;;;;11.29;100.00;96490.13;5119452;27;20023;-74
2021/09/29 07:19:27;;;;;;;4.25;3.10;;;;;;;11.35;100.00;96491.44;5127067;27;20031;-72
2021/09/29 07:21:53;;;;;;;3.67;3.38;;;;;;;11.43;100.00;96503.03;5120821;27;20019;-71
2021/09/29 07:24:19;;;;;;;3.45;3.00;;;;;;;11.53;100.00;96510.16;5124355;27;20045;-71
2021/09/29 07:26:44;;;;;;;3.80;3.13;;;;;;;11.55;100.00;96506.44;5115463;27;20027;-73
2021/09/29 07:29:10;;;;;;;6.75;2.97;;;;;;;11.57;100.00;96506.28;5121401;27;20024;-74
2021/09/29 07:31:37;;;;;;;2.90;2.80;;;;;;;11.71;100.00;96515.69;5120245;27;20039;-74
2021/09/29 07:34:02;;;;;;;5.38;3.63;;;;;;;11.77;100.00;96509.06;5108305;28;20555;-75
2021/09/29 07:36:28;;;;;;;5.00;3.05;;;;;;;11.82;100.00;96520.06;5111701;28;20024;-74
2021/09/29 07:38:53;;;;;;;5.30;3.08;;;;;;;11.88;100.00;96514.28;5115633;28;20027;-74
2021/09/29 07:41:19;;;;;;;4.03;3.60;;;;;;;11.90;100.00;96514.97;5114905;28;20035;-73
2021/09/29 07:43:47;;;;;;;6.72;3.85;;;;;;;11.99;100.00;96510.72;5111851;28;20035;-73
2021/09/29 07:46:13;;;;;;;7.40;4.25;;;;;;;12.06;100.00;96514.53;5111425;28;20066;-75
2021/09/29 07:48:47;;;;;;;7.68;4.63;;;;;;;12.23;99.74;96513.09;5111376;28;20019;-73
2021/09/29 07:51:18;;;;;;;7.20;3.80;;;;;;;12.25;99.60;96519.06;5099172;28;20036;-73
2021/09/29 07:53:44;;;;;;;4.00;3.50;;;;;;;12.32;100.00;96522.03;5101512;28;20020;-71
2021/09/29 07:56:12;;;;;;;2.97;2.60;;;;;;;12.50;98.19;96516.97;5095625;28;20047;-69
2021/09/29 07:58:38;;;;;;;8.63;2.80;;;;;;;12.68;96.86;96529.50;5104883;28;20096;-68
2021/09/29 08:01:03;;;;;;;6.50;2.70;;;;;;;12.78;97.38;96522.47;5079829;28;20475;-69
2021/09/29 08:03:29;;;;;;;3.05;2.40;;;;;;;12.86;96.54;96524.44;5097356;28;21072;-69
2021/09/29 08:05:59;;;;;;;3.97;2.45;;;;;;;12.92;97.14;96534.44;5104715;28;20031;-66
2021/09/29 08:08:24;;;;;;;2.20;2.10;;;;;;;13.04;96.22;96529.88;5095163;28;20031;-69
2021/09/29 08:10:50;;;;;;;6.45;2.60;;;;;;;13.13;96.69;96529.03;5096723;28;20486;-70
2021/09/29 08:13:16;;;;;;;3.28;3.00;;;;;;;13.22;95.68;96526.56;5091882;28;20088;-69
2021/09/29 08:15:41;;;;;;;3.97;2.92;;;;;;;13.36;94.24;96541.19;5114593;27;20038;-60
2021/09/29 08:18:07;;;;;;;8.07;3.05;;;;;;;13.49;93.14;96544.44;5110000;27;20555;-59
2021/09/29 08:20:35;;;;;;;3.13;2.60;;;;;;;13.59;91.68;96541.75;5098207;27;20660;-59
2021/09/29 08:23:37;;;;;;;4.95;2.58;;;;;;;13.67;91.96;96544.56;5097240;27;20028;-59
2021/09/29 08:26:22;;;;;;;7.15;2.28;;;;;;;13.68;91.31;96548.03;5103664;27;20039;-60
2021/09/29 08:28:47;;;;;;;4.35;2.17;;;;;;;13.65;90.49;96545.66;5098966;27;20028;-59
2021/09/29 08:31:30;;;;;;;3.72;2.25;;;;;;;13.49;89.38;96541.78;5100575;28;20011;-59
2021/09/29 08:37:08;;;;;;;3.78;2.38;;;;;;;13.36;89.42;96542.00;5094513;28;20051;-59
2021/09/29 08:39:45;;;;;;;2.22;1.90;;;;;;;13.38;89.47;96548.03;5112035;28;20467;-59
2021/09/29 08:44:47;;;;;;;3.47;2.10;;;;;;;13.40;85.80;96545.22;5115093;27;20541;-58
2021/09/29 09:17:35;;;;;;;6.13;2.20;;;;;;;14.48;81.39;96539.78;5078067;28;20027;-60
2021/09/29 09:20:24;;;;;;;3.67;1.95;;;;;;;14.45;81.97;96542.69;5099705;28;20111;-60
2021/09/29 09:22:54;;;;;;;4.05;2.13;;;;;;;14.43;82.17;96542.88;5097544;28;20024;-60
2021/09/29 09:25:38;;;;;;;2.10;2.00;;;;;;;14.40;83.14;96544.97;5097018;28;20478;-59
2021/09/29 09:28:12;;;;;;;3.58;2.25;;;;;;;14.45;82.12;96543.53;5079277;28;20668;-59
2021/09/29 09:30:38;;;;;;;2.10;1.90;;;;;;;14.56;80.37;96542.53;5098116;27;20537;-61
2021/09/29 09:33:04;;;;;;;3.55;2.08;;;;;;;14.59;80.33;96533.47;5101894;28;20106;-59
2021/09/29 09:35:48;;;;;;;2.25;2.05;;;;;;;14.77;78.14;96533.53;5099657;28;20106;-60
2021/09/29 09:38:23;;;;;;;2.40;1.85;;;;;;;14.86;78.74;96534.47;5111892;28;20032;-59
2021/09/29 09:41:05;;;;;;;3.28;1.90;;;;;;;14.97;79.28;96533.44;5111350;27;20031;-59
2021/09/29 09:43:30;;;;;;;5.35;2.05;;;;;;;15.08;76.93;96535.84;5102291;28;20433;-62
2021/09/29 09:45:58;;;;;;;2.35;2.00;;;;;;;15.23;77.14;96532.69;5099706;28;20073;-60
2021/09/29 09:48:26;;;;;;;3.42;1.80;;;;;;;15.45;75.88;96536.72;5104637;28;20451;-59
2021/09/29 09:51:13;;;;;;;1.92;1.55;;;;;;;15.69;73.55;96533.44;5097526;28;20032;-59
2021/09/29 09:53:39;;;;;;;4.63;1.90;;;;;;;15.79;72.28;96538.66;5098991;28;20019;-59
2021/09/29 09:56:15;;;;;;;4.20;1.63;;;;;;;15.94;71.57;96533.66;5096303;28;20081;-59
2021/09/29 09:58:45;;;;;;;1.67;1.58;;;;;;;16.08;71.49;96534.09;5104809;28;20027;-59
2021/09/29 10:01:18;;;;;;;1.73;1.60;;;;;;;16.21;70.74;96537.16;5102258;28;20627;-59
2021/09/29 10:03:45;;;;;;;4.88;1.67;;;;;;;16.37;70.23;96535.59;5077971;28;20428;-59
2021/09/29 10:06:10;;;;;;;4.18;1.60;;;;;;;16.45;70.36;96530.31;5099302;28;20032;-60
2021/09/29 10:08:36;;;;;;;3.25;1.77;;;;;;;16.54;69.33;96528.53;5095761;28;20034;-59
2021/09/29 10:11:43;;;;;;;2.55;1.83;;;;;;;16.59;69.27;96535.03;5109526;27;20432;-59
2021/09/29 10:27:21;;;;;;;3.80;1.77;;;;;;;17.92;64.80;96543.31;5098360;28;20099;-59
2021/09/29 10:30:07;;;;;;;2.22;1.75;;;;;;;18.14;62.01;96549.00;5095480;28;20028;-59
2021/09/29 10:32:44;;;;;;;2.25;1.70;;;;;;;18.22;61.47;96545.50;5095929;28;20498;-59
2021/09/29 10:43:05;;;;;;;3.33;1.83;;;;;;;17.70;63.39;96539.50;5110363;28;20028;-59
2021/09/29 10:45:40;;;;;;;2.95;1.73;;;;;;;17.76;61.89;96542.31;5096708;28;20076;-59
2021/09/29 11:30:21;;;;;;;3.42;1.40;;;;;;;20.65;51.40;96545.47;5096363;28;20024;-59
2021/09/29 11:32:52;;;;;;;3.70;1.23;;;;;;;20.75;50.78;96538.81;5100072;28;20115;-59
2021/09/29 11:35:29;;;;;;;5.53;1.40;;;;;;;20.69;51.89;96536.06;5094752;28;20467;-59
2021/09/29 12:07:59;;;;;;;2.65;1.15;;;;;;;20.27;52.95;96523.16;5128699;27;20165;-59
2021/09/29 12:10:27;;;;;;;1.50;1.30;;;;;;;20.56;50.32;96532.19;5113246;27;20578;-60
2021/09/29 12:12:53;;;;;;;2.58;1.80;;;;;;;20.52;52.15;96524.72;5110619;28;20440;-59
2021/09/29 12:15:19;;;;;;;2.95;1.17;;;;;;;20.40;52.15;96521.66;5103370;28;20024;-59
2021/09/29 12:17:49;;;;;;;1.50;1.40;;;;;;;20.47;52.25;96520.75;5105331;28;20399;-60
2021/09/29 12:20:19;;;;;;;1.48;1.38;;;;;;;20.50;51.70;96511.53;5099436;28;20094;-59
2021/09/29 12:22:51;;;;;;;1.75;1.00;;;;;;;20.48;51.09;96518.94;5104887;28;20023;-59
2021/09/29 12:25:28;;;;;;;2.40;1.77;;;;;;;20.74;52.15;96514.94;5080712;28;20135;-59
2021/09/29 12:28:14;;;;;;;2.50;1.40;;;;;;;20.93;49.40;96518.09;5098853;28;20085;-59
2021/09/29 12:30:54;;;;;;;1.50;1.20;;;;;;;20.77;50.34;96506.53;5099912;28;20043;-59
2021/09/29 12:33:33;;;;;;;3.65;1.40;;;;;;;20.90;49.65;96519.28;5102690;28;20027;-59
2021/09/29 12:35:58;;;;;;;3.58;1.33;;;;;;;21.13;50.00;96518.31;5106412;28;20028;-59
2021/09/29 12:38:35;;;;;;;6.68;1.10;;;;;;;21.06;49.58;96512.06;5111355;28;20039;-59
2021/09/29 12:41:02;;;;;;;1.35;1.25;;;;;;;21.15;49.79;96509.09;5099678;28;20024;-59
2021/09/29 12:43:27;;;;;;;2.88;1.60;;;;;;;20.98;50.22;96502.28;5109007;28;20027;-59
2021/09/29 12:45:53;;;;;;;2.63;1.67;;;;;;;20.68;48.97;96505.00;5103708;28;20035;-58
2021/09/29 12:48:23;;;;;;;4.38;1.40;;;;;;;20.67;50.24;96505.97;5098076;28;20046;-58
2021/09/29 12:51:01;;;;;;;6.03;1.65;;;;;;;20.86;49.81;96504.63;5101559;28;20407;-58
2021/09/29 12:56:04;;;;;;;3.60;1.48;;;;;;;20.66;50.30;96501.66;5098768;28;20074;-59
2021/09/29 12:58:31;;;;;;;1.27;1.20;;;;;;;20.76;49.74;96499.53;5102770;28;20103;-59
2021/09/29 13:00:58;;;;;;;2.78;1.60;;;;;;;20.72;49.73;96498.25;5101083;28;20031;-59
2021/09/29 13:03:24;;;;;;;3.80;1.40;;;;;;;20.61;50.56;96503.03;5100751;28;20435;-59
2021/09/29 13:05:50;;;;;;;1.27;1.08;;;;;;;21.01;50.59;96507.25;5100911;28;20030;-59
2021/09/29 13:08:16;;;;;;;1.65;1.20;;;;;;;21.08;49.45;96502.00;5099840;27;20020;-59
2021/09/29 13:10:42;;;;;;;1.00;1.00;;;;;;;21.12;49.14;96508.63;5098519;28;20077;-59
2021/09/29 13:13:10;;;;;;;1.15;1.10;;;;;;;21.09;48.16;96509.00;5098570;28;20102;-59
2021/09/29 13:15:40;;;;;;;1.65;1.10;;;;;;;21.27;49.60;96498.72;5104625;27;20019;-59
2021/09/29 13:18:07;;;;;;;1.30;1.13;;;;;;;21.62;48.97;96503.38;5103221;27;20181;-59
2021/09/29 13:20:33;;;;;;;4.47;1.08;;;;;;;21.53;47.13;96504.50;5100424;27;20104;-59
2021/09/29 13:23:06;;;;;;;1.60;0.98;;;;;;;21.13;47.69;96516.47;5092474;27;20750;-60
2021/09/29 13:38:57;;;;;;;2.65;1.40;;;;;;;20.72;46.81;96525.00;5110048;27;20144;-59
2021/09/29 13:41:23;;;;;;;1.40;1.20;;;;;;;21.08;47.84;96524.22;5111346;28;20028;-59
2021/09/29 13:43:48;;;;;;;2.10;1.13;;;;;;;21.65;44.91;96524.44;5114361;27;20061;-59
2021/09/29 13:46:14;;;;;;;2.10;0.93;;;;;;;21.27;46.34;96533.53;5099099;28;20028;-59
2021/09/29 13:48:39;;;;;;;1.33;0.98;;;;;;;20.94;47.20;96528.59;5104253;28;20038;-58
2021/09/29 13:51:04;;;;;;;0.93;0.90;;;;;;;20.91;48.18;96528.16;5096350;28;20471;-59
2021/09/29 13:53:30;;;;;;;2.00;1.23;;;;;;;21.27;47.10;96530.00;5092652;27;20081;-59
2021/09/29 13:55:58;;;;;;;0.93;0.88;;;;;;;21.32;46.96;96525.75;5093250;28;20501;-59